Time;durP1;ratioP1;P1;durP2;ratioP2;P2;SDS_P1;SDS_P2;PMS_P1;PMS_P2;Temp;Humidity;BMP_temperature;BMP_pressure;BME280_temperature;BME280_humidity;BME280_pressure;Samples;Min_cycle;Max_cycle;Signal;HPM_P1;HPM_P2
2023/09/04 00:02:13;;;;;;;5.70;3.80;;;12.50;99.90;;;;;;5034029;28;20210;-77
2023/09/04 00:04:42;;;;;;;6.23;3.33;;;12.50;99.90;;;;;;5033959;28;20204;-78
2023/09/04 00:07:08;;;;;;;5.93;3.30;;;12.70;99.90;;;;;;5033733;28;20223;-78
2023/09/04 00:09:35;;;;;;;4.97;3.33;;;12.60;99.90;;;;;;5033709;28;20195;-78
2023/09/04 00:12:02;;;;;;;2.50;2.30;;;12.40;99.90;;;;;;5033940;28;20205;-78
2023/09/04 00:14:29;;;;;;;2.93;2.73;;;12.30;99.90;;;;;;5034192;28;20235;-78
2023/09/04 00:16:55;;;;;;;3.60;2.90;;;12.30;99.90;;;;;;5033556;28;20223;-78
2023/09/04 00:19:22;;;;;;;5.53;4.87;;;12.00;99.90;;;;;;5034236;28;20211;-76
2023/09/04 00:21:50;;;;;;;6.00;5.27;;;11.60;99.90;;;;;;5033419;28;20215;-77
2023/09/04 00:24:20;;;;;;;5.43;4.87;;;11.50;99.90;;;;;;5034545;28;20203;-78
2023/09/04 00:26:47;;;;;;;6.07;4.87;;;11.60;99.90;;;;;;5024951;28;20688;-78
2023/09/04 00:29:13;;;;;;;4.90;4.40;;;11.90;99.90;;;;;;5014566;28;20576;-76
2023/09/04 00:31:40;;;;;;;5.53;3.70;;;11.90;99.90;;;;;;5013946;28;20509;-77
2023/09/04 00:34:07;;;;;;;4.30;3.57;;;12.20;99.90;;;;;;5031176;28;20207;-78
2023/09/04 00:36:34;;;;;;;5.27;3.83;;;12.30;99.90;;;;;;5034079;28;20203;-77
2023/09/04 00:39:02;;;;;;;5.80;3.73;;;12.40;99.90;;;;;;5034728;28;20199;-78
2023/09/04 00:41:29;;;;;;;4.23;3.33;;;12.40;99.90;;;;;;5033788;28;20223;-77
2023/09/04 00:43:56;;;;;;;3.67;3.33;;;12.50;99.90;;;;;;5032850;28;20660;-78
2023/09/04 00:46:23;;;;;;;4.67;3.07;;;12.40;99.90;;;;;;5025994;28;20208;-77
2023/09/04 00:48:50;;;;;;;5.40;3.60;;;12.50;99.90;;;;;;5019290;28;20200;-78
2023/09/04 00:51:17;;;;;;;5.67;4.00;;;12.50;99.90;;;;;;5027456;28;20242;-77
2023/09/04 00:53:44;;;;;;;7.00;3.77;;;12.30;99.90;;;;;;5037620;28;20214;-78
2023/09/04 00:56:13;;;;;;;5.77;4.33;;;12.10;99.90;;;;;;5032653;28;20207;-78
2023/09/04 00:58:40;;;;;;;5.33;3.83;;;12.00;99.90;;;;;;5018206;28;20697;-77
2023/09/04 01:01:06;;;;;;;5.27;3.90;;;12.00;99.90;;;;;;5030504;28;20591;-78
2023/09/04 01:03:33;;;;;;;6.23;4.03;;;11.90;99.90;;;;;;5037020;28;20207;-78
2023/09/04 01:06:02;;;;;;;3.63;3.33;;;11.40;99.90;;;;;;5035237;28;20263;-78
2023/09/04 01:08:29;;;;;;;3.20;2.90;;;11.40;99.90;;;;;;5026974;28;20196;-77
2023/09/04 01:11:07;;;;;;;7.13;3.50;;;11.40;99.90;;;;;;5036724;28;20220;-78
2023/09/04 01:13:44;;;;;;;4.73;3.30;;;11.50;99.90;;;;;;5029869;28;20207;-76
2023/09/04 01:16:12;;;;;;;6.30;3.60;;;11.60;99.90;;;;;;5037329;28;20199;-78
2023/09/04 01:18:39;;;;;;;5.23;3.60;;;11.60;99.90;;;;;;5036735;28;20226;-76
2023/09/04 01:21:07;;;;;;;4.27;3.30;;;11.60;99.90;;;;;;5035857;28;20319;-77
2023/09/04 01:23:34;;;;;;;4.93;3.80;;;11.70;99.90;;;;;;5037240;28;20432;-77
2023/09/04 01:26:10;;;;;;;4.73;4.10;;;11.90;99.90;;;;;;5036706;28;20567;-77
2023/09/04 01:28:43;;;;;;;6.60;3.30;;;12.00;99.90;;;;;;5036774;28;20195;-77
2023/09/04 01:31:19;;;;;;;3.40;3.10;;;12.00;99.90;;;;;;5036657;28;20215;-78
2023/09/04 01:33:56;;;;;;;5.33;4.83;;;11.50;99.90;;;;;;5036527;28;20298;-78
2023/09/04 01:36:29;;;;;;;4.20;3.80;;;11.00;99.90;;;;;;5020233;28;20247;-77
2023/09/04 01:38:56;;;;;;;4.43;3.63;;;11.10;99.90;;;;;;5037368;28;20231;-78
2023/09/04 01:41:23;;;;;;;4.00;3.60;;;11.30;99.90;;;;;;5016818;28;20246;-78
2023/09/04 01:43:50;;;;;;;5.63;4.20;;;11.30;99.90;;;;;;5023641;28;20192;-78
2023/09/04 01:46:17;;;;;;;4.17;3.73;;;11.40;99.90;;;;;;5036560;28;20202;-77
2023/09/04 01:48:44;;;;;;;3.73;3.33;;;11.60;99.90;;;;;;5035275;28;20196;-76
2023/09/04 01:51:11;;;;;;;5.40;3.77;;;11.50;99.90;;;;;;5035910;28;20303;-78
2023/09/04 01:53:39;;;;;;;4.73;3.70;;;11.60;99.90;;;;;;5036560;28;20196;-77
2023/09/04 01:56:05;;;;;;;4.27;3.60;;;11.70;99.90;;;;;;5035239;28;20200;-78
2023/09/04 01:58:32;;;;;;;4.40;3.77;;;11.70;99.90;;;;;;5036111;28;20215;-78
2023/09/04 02:00:59;;;;;;;5.50;3.87;;;11.60;99.90;;;;;;5026437;28;20224;-78
2023/09/04 02:03:26;;;;;;;4.00;3.60;;;11.60;99.90;;;;;;5031052;28;20239;-78
2023/09/04 02:05:53;;;;;;;3.57;3.27;;;11.90;99.90;;;;;;5036799;28;20207;-78
2023/09/04 02:08:20;;;;;;;6.13;3.77;;;11.90;99.90;;;;;;5035032;28;20192;-78
2023/09/04 02:10:49;;;;;;;5.53;3.57;;;11.90;99.90;;;;;;5036324;28;20231;-78
2023/09/04 02:13:16;;;;;;;5.73;3.20;;;12.00;99.90;;;;;;5036222;28;20238;-77
2023/09/04 02:15:43;;;;;;;3.93;3.53;;;11.80;99.90;;;;;;5036251;28;20210;-78
2023/09/04 02:18:10;;;;;;;7.40;3.60;;;11.70;99.90;;;;;;5035539;28;20223;-78
2023/09/04 02:20:37;;;;;;;4.57;3.47;;;11.50;99.90;;;;;;5035799;28;20318;-78
2023/09/04 02:23:04;;;;;;;4.57;3.50;;;11.60;99.90;;;;;;5034865;28;20214;-77
2023/09/04 02:25:31;;;;;;;5.07;3.70;;;11.50;99.90;;;;;;5036219;28;20204;-77
2023/09/04 02:27:59;;;;;;;5.03;3.90;;;11.60;99.90;;;;;;5036462;28;20210;-78
2023/09/04 02:30:26;;;;;;;4.37;3.47;;;11.50;99.90;;;;;;5035398;28;20778;-77
2023/09/04 02:32:58;;;;;;;4.70;3.60;;;11.60;99.90;;;;;;5032946;28;20208;-78
2023/09/04 02:35:25;;;;;;;5.37;3.73;;;11.60;99.90;;;;;;5016240;28;20204;-77
2023/09/04 02:37:52;;;;;;;3.70;3.00;;;11.50;99.90;;;;;;5016696;28;20220;-76
2023/09/04 02:40:18;;;;;;;7.17;4.10;;;11.30;99.90;;;;;;5015685;28;20259;-76
2023/09/04 02:42:45;;;;;;;11.73;4.70;;;10.70;99.90;;;;;;5017775;28;20204;-77
2023/09/04 02:45:13;;;;;;;19.53;3.80;;;10.50;99.90;;;;;;5036296;28;20200;-77
2023/09/04 02:47:40;;;;;;;3.57;2.80;;;10.40;99.90;;;;;;5035033;28;20196;-77
2023/09/04 02:50:08;;;;;;;4.70;3.87;;;10.60;99.90;;;;;;5035659;28;20277;-78
2023/09/04 02:52:35;;;;;;;4.57;3.90;;;10.70;99.90;;;;;;5035273;28;20195;-77
2023/09/04 02:55:02;;;;;;;5.77;4.20;;;10.80;99.90;;;;;;5034846;28;20222;-78
2023/09/04 02:57:30;;;;;;;7.23;4.20;;;10.80;99.90;;;;;;5029994;28;20230;-78
2023/09/04 02:59:57;;;;;;;4.30;3.90;;;11.00;99.90;;;;;;5036181;28;20304;-78
2023/09/04 03:02:26;;;;;;;5.83;4.00;;;11.00;99.90;;;;;;5037037;28;20664;-77
2023/09/04 03:04:58;;;;;;;5.00;3.90;;;11.00;99.90;;;;;;5035231;28;20202;-77
2023/09/04 03:07:26;;;;;;;4.20;3.87;;;11.00;99.90;;;;;;5032657;28;20208;-76
2023/09/04 03:09:56;;;;;;;4.97;3.77;;;11.20;99.90;;;;;;5032994;28;20215;-77
2023/09/04 03:12:23;;;;;;;4.93;4.20;;;11.10;99.90;;;;;;5033739;28;20204;-76
2023/09/04 03:14:55;;;;;;;6.27;3.30;;;11.10;99.90;;;;;;5032829;28;20632;-77
2023/09/04 03:17:22;;;;;;;7.97;3.93;;;10.80;99.90;;;;;;5033399;28;20242;-79
2023/09/04 03:19:51;;;;;;;3.63;3.13;;;10.80;99.90;;;;;;5032706;28;20203;-77
2023/09/04 03:22:17;;;;;;;5.83;4.47;;;10.80;99.90;;;;;;5031027;28;20200;-78
2023/09/04 03:24:44;;;;;;;5.80;4.87;;;10.70;99.90;;;;;;5032773;28;20208;-77
2023/09/04 03:27:11;;;;;;;6.30;4.87;;;10.70;99.90;;;;;;5035442;28;20203;-77
2023/09/04 03:29:38;;;;;;;6.93;5.17;;;10.60;99.90;;;;;;5034947;28;20195;-77
2023/09/04 03:32:06;;;;;;;7.57;5.60;;;10.70;99.90;;;;;;5034754;28;20234;-78
2023/09/04 03:34:32;;;;;;;10.37;5.63;;;10.60;99.90;;;;;;5034471;28;20204;-76
2023/09/04 03:37:00;;;;;;;8.67;5.20;;;10.70;99.90;;;;;;5034130;28;20469;-77
2023/09/04 03:39:27;;;;;;;5.70;5.13;;;10.70;99.90;;;;;;5034568;28;20227;-78
2023/09/04 03:41:54;;;;;;;7.83;5.53;;;10.70;99.90;;;;;;5034280;28;20230;-78
2023/09/04 03:44:21;;;;;;;6.27;5.60;;;10.80;99.90;;;;;;5034654;28;20588;-77
2023/09/04 03:46:48;;;;;;;7.33;5.87;;;10.90;99.90;;;;;;5034826;28;20214;-78
2023/09/04 03:49:14;;;;;;;6.60;4.90;;;11.20;99.90;;;;;;5034273;28;20203;-77
2023/09/04 03:51:41;;;;;;;6.53;4.97;;;11.10;99.90;;;;;;5034201;28;20601;-78
2023/09/04 03:54:09;;;;;;;5.37;4.60;;;11.10;99.90;;;;;;5034447;28;20690;-78
2023/09/04 03:56:36;;;;;;;6.47;4.40;;;11.10;99.90;;;;;;5034241;28;20576;-77
2023/09/04 03:59:04;;;;;;;5.57;3.73;;;11.00;99.90;;;;;;5034588;28;20234;-78
2023/09/04 04:01:31;;;;;;;3.87;3.53;;;11.10;99.90;;;;;;5033965;28;20227;-77
2023/09/04 04:03:59;;;;;;;7.97;4.23;;;11.00;99.90;;;;;;5034664;28;20242;-77
2023/09/04 04:06:26;;;;;;;5.63;4.20;;;10.90;99.90;;;;;;5034086;28;20207;-77
2023/09/04 04:08:54;;;;;;;4.87;4.10;;;10.90;99.90;;;;;;5034393;28;20200;-76
2023/09/04 04:11:23;;;;;;;9.00;4.27;;;10.80;99.90;;;;;;5034392;28;20220;-77
2023/09/04 04:13:50;;;;;;;4.37;3.97;;;10.80;99.90;;;;;;5034241;28;20668;-78
2023/09/04 04:16:17;;;;;;;7.83;4.33;;;10.80;99.90;;;;;;5034676;28;20680;-78
2023/09/04 04:18:43;;;;;;;4.73;4.33;;;10.70;99.90;;;;;;5039274;28;20599;-78
2023/09/04 04:21:10;;;;;;;5.83;4.00;;;10.70;99.90;;;;;;5039340;28;20230;-78
2023/09/04 04:23:37;;;;;;;4.90;3.50;;;10.80;99.90;;;;;;5040754;28;20660;-78
2023/09/04 04:26:04;;;;;;;4.93;3.40;;;10.80;99.90;;;;;;5039667;28;20660;-78
2023/09/04 04:28:32;;;;;;;3.40;3.10;;;10.40;99.90;;;;;;5032924;28;20204;-78
2023/09/04 04:31:01;;;;;;;3.97;3.53;;;10.10;99.90;;;;;;5038756;28;20223;-78
2023/09/04 04:33:28;;;;;;;3.50;3.20;;;10.00;99.90;;;;;;5039442;28;20644;-79
2023/09/04 04:35:55;;;;;;;3.70;3.40;;;10.00;99.90;;;;;;5028756;28;20203;-78
2023/09/04 04:38:22;;;;;;;3.23;2.90;;;10.00;99.90;;;;;;5020842;28;20266;-77
2023/09/04 04:40:49;;;;;;;3.43;3.13;;;10.00;99.90;;;;;;5035923;28;20307;-78
2023/09/04 04:43:16;;;;;;;5.17;3.47;;;10.00;99.90;;;;;;5017492;28;20214;-79
2023/09/04 04:45:44;;;;;;;3.70;3.40;;;10.10;99.90;;;;;;5018300;28;20204;-78
2023/09/04 04:48:11;;;;;;;4.10;3.73;;;10.20;99.90;;;;;;5019335;28;20197;-79
2023/09/04 04:50:37;;;;;;;4.00;3.70;;;10.40;99.90;;;;;;5018527;28;20221;-77
2023/09/04 04:53:04;;;;;;;4.90;4.40;;;10.40;99.90;;;;;;5018630;28;20212;-78
2023/09/04 04:55:31;;;;;;;4.30;3.80;;;10.50;99.90;;;;;;5018533;28;20208;-78
2023/09/04 04:57:58;;;;;;;5.50;4.37;;;10.60;99.90;;;;;;5037158;28;20210;-78
2023/09/04 05:00:25;;;;;;;3.93;2.67;;;10.70;99.90;;;;;;5038624;28;20228;-77
2023/09/04 05:02:53;;;;;;;2.47;2.30;;;10.60;99.90;;;;;;5038131;28;20576;-79
2023/09/04 05:05:20;;;;;;;2.30;2.20;;;10.60;99.90;;;;;;5038525;28;20207;-79
2023/09/04 05:07:47;;;;;;;2.83;2.63;;;10.70;99.90;;;;;;5037415;28;20203;-78
2023/09/04 05:10:14;;;;;;;2.80;2.60;;;10.80;99.90;;;;;;5037241;28;20707;-77
2023/09/04 05:12:40;;;;;;;2.00;1.90;;;10.70;99.90;;;;;;5037107;28;20204;-78
2023/09/04 05:15:08;;;;;;;4.23;2.67;;;10.60;99.90;;;;;;5038352;28;20199;-77
2023/09/04 05:17:35;;;;;;;4.87;4.47;;;10.30;99.90;;;;;;5037977;28;20426;-78
2023/09/04 05:20:03;;;;;;;6.03;5.30;;;10.40;99.90;;;;;;5036324;28;20224;-76
2023/09/04 05:22:31;;;;;;;5.30;4.80;;;10.70;99.90;;;;;;5018844;28;20629;-78
2023/09/04 05:24:58;;;;;;;4.60;4.10;;;11.00;99.90;;;;;;5018562;28;20204;-78
2023/09/04 05:27:25;;;;;;;4.60;4.20;;;11.10;99.90;;;;;;5018642;28;20200;-79
2023/09/04 05:29:53;;;;;;;5.30;4.20;;;11.20;99.90;;;;;;5017466;28;20231;-78
2023/09/04 05:32:19;;;;;;;4.33;3.93;;;11.10;99.90;;;;;;5017790;28;20208;-78
2023/09/04 05:34:46;;;;;;;5.47;4.57;;;11.20;99.90;;;;;;5021008;28;20207;-77
2023/09/04 05:37:14;;;;;;;6.20;4.63;;;11.20;99.90;;;;;;5035494;28;20199;-78
2023/09/04 05:39:41;;;;;;;8.63;5.97;;;11.40;99.90;;;;;;5037448;28;20226;-78
2023/09/04 05:42:08;;;;;;;8.63;5.40;;;11.40;99.90;;;;;;5038110;28;20576;-78
2023/09/04 05:44:34;;;;;;;4.90;4.47;;;11.40;99.90;;;;;;5037680;28;20291;-78
2023/09/04 05:47:01;;;;;;;5.83;5.23;;;11.40;99.90;;;;;;5038014;28;20290;-77
2023/09/04 05:49:28;;;;;;;6.03;5.30;;;11.60;99.90;;;;;;5037632;28;20426;-78
2023/09/04 05:51:55;;;;;;;7.63;5.47;;;11.80;99.90;;;;;;5037641;28;20249;-77
2023/09/04 05:54:23;;;;;;;6.03;5.33;;;11.90;99.90;;;;;;5037860;28;20210;-77
2023/09/04 05:56:51;;;;;;;6.60;5.23;;;12.00;99.90;;;;;;5037691;28;20632;-78
2023/09/04 05:59:17;;;;;;;7.53;5.50;;;12.00;99.90;;;;;;5036898;28;20310;-77
2023/09/04 06:01:44;;;;;;;12.67;5.90;;;12.00;99.90;;;;;;5035452;28;20228;-77
2023/09/04 06:04:12;;;;;;;7.70;5.63;;;12.10;99.90;;;;;;5035866;28;20203;-77
2023/09/04 06:06:39;;;;;;;6.50;5.80;;;12.30;99.90;;;;;;5020463;28;20578;-77
2023/09/04 06:09:07;;;;;;;8.37;5.70;;;12.40;99.90;;;;;;5016745;28;20614;-78
2023/09/04 06:11:36;;;;;;;8.80;5.70;;;12.40;99.90;;;;;;5017196;28;20228;-78
2023/09/04 06:14:02;;;;;;;7.57;5.80;;;12.40;99.90;;;;;;5017500;28;20268;-79
2023/09/04 06:16:29;;;;;;;10.33;6.20;;;12.30;99.90;;;;;;5017887;28;20214;-78
2023/09/04 06:18:56;;;;;;;7.73;5.63;;;12.60;99.90;;;;;;5022960;28;20223;-77
2023/09/04 06:21:23;;;;;;;7.63;5.63;;;12.80;99.90;;;;;;5036565;28;20211;-77
2023/09/04 06:23:50;;;;;;;8.67;5.73;;;12.90;99.90;;;;;;5037476;28;20199;-78
2023/09/04 06:26:16;;;;;;;9.87;5.73;;;13.40;99.90;;;;;;5036905;28;20203;-78
2023/09/04 06:28:44;;;;;;;6.67;5.50;;;13.30;99.90;;;;;;5036987;28;20203;-79
2023/09/04 06:31:11;;;;;;;14.57;6.17;;;13.40;99.90;;;;;;5035721;28;20230;-78
2023/09/04 06:33:38;;;;;;;6.40;4.80;;;13.20;99.90;;;;;;5036833;28;20203;-77
2023/09/04 06:36:05;;;;;;;6.73;4.80;;;13.10;99.90;;;;;;5036707;28;20211;-79
2023/09/04 06:38:32;;;;;;;7.03;4.90;;;13.10;99.90;;;;;;5037066;28;20199;-77
2023/09/04 06:40:59;;;;;;;5.97;5.00;;;13.20;99.90;;;;;;5034814;28;20228;-78
2023/09/04 06:43:26;;;;;;;5.93;5.17;;;13.20;99.90;;;;;;5035724;28;20204;-79
2023/09/04 06:45:54;;;;;;;6.77;5.63;;;13.30;99.90;;;;;;5036233;28;20296;-77
2023/09/04 06:48:21;;;;;;;7.43;5.20;;;13.30;99.90;;;;;;5035127;28;20220;-77
2023/09/04 06:50:50;;;;;;;5.70;4.50;;;13.40;99.90;;;;;;5027441;28;20219;-77
2023/09/04 06:53:17;;;;;;;8.83;5.00;;;13.60;99.90;;;;;;5015751;28;20200;-76
2023/09/04 06:55:44;;;;;;;6.87;5.07;;;13.70;99.90;;;;;;5015615;28;20209;-79
2023/09/04 06:58:11;;;;;;;8.63;4.87;;;13.90;99.90;;;;;;5030890;28;20204;-78
2023/09/04 07:00:38;;;;;;;7.30;4.57;;;14.00;99.90;;;;;;5034755;28;20663;-78
2023/09/04 07:03:06;;;;;;;9.27;5.93;;;14.30;99.90;;;;;;5036221;28;20211;-77
2023/09/04 07:05:33;;;;;;;7.55;5.75;;;14.40;99.90;;;;;;5034728;28;20208;-76
2023/09/04 07:08:00;;;;;;;5.80;5.18;;;14.60;99.90;;;;;;5034270;28;20195;-78
2023/09/04 07:10:27;;;;;;;8.00;5.38;;;14.50;99.90;;;;;;5033091;28;20226;-77
2023/09/04 07:12:54;;;;;;;8.93;6.30;;;14.40;99.90;;;;;;5033652;28;20299;-77
2023/09/04 07:15:21;;;;;;;16.33;8.25;;;14.60;99.90;;;;;;5034299;28;20207;-77
2023/09/04 07:17:48;;;;;;;13.35;8.15;;;14.60;99.90;;;;;;5033977;28;20540;-77
2023/09/04 07:20:17;;;;;;;15.85;8.80;;;15.00;99.90;;;;;;5033229;28;20266;-78
2023/09/04 07:22:43;;;;;;;12.98;8.18;;;15.20;99.90;;;;;;5033323;28;20242;-77
2023/09/04 07:25:11;;;;;;;10.70;7.75;;;15.40;99.90;;;;;;5033078;28;20208;-77
2023/09/04 07:27:37;;;;;;;11.75;6.80;;;15.50;99.90;;;;;;5027829;28;20255;-77
2023/09/04 07:30:05;;;;;;;8.20;6.20;;;15.70;99.90;;;;;;5012532;28;20228;-76
2023/09/04 07:32:32;;;;;;;8.85;6.10;;;15.80;99.90;;;;;;5013460;28;20200;-78
2023/09/04 07:34:59;;;;;;;9.18;5.65;;;15.90;99.90;;;;;;5013945;28;20204;-77
2023/09/04 07:37:27;;;;;;;7.60;4.90;;;16.00;99.90;;;;;;5013796;28;20207;-77
2023/09/04 07:39:55;;;;;;;8.93;5.57;;;16.10;99.90;;;;;;5012743;28;20228;-78
2023/09/04 07:42:22;;;;;;;6.00;4.60;;;16.30;99.90;;;;;;5013303;28;20211;-78
2023/09/04 07:44:49;;;;;;;7.88;5.00;;;16.30;99.90;;;;;;5013354;28;20204;-76
2023/09/04 07:47:16;;;;;;;7.82;4.95;;;16.40;99.90;;;;;;5013448;28;20208;-77
2023/09/04 07:49:43;;;;;;;8.13;5.13;;;16.50;99.90;;;;;;5013001;28;20682;-76
2023/09/04 07:52:10;;;;;;;10.07;4.32;;;16.50;99.90;;;;;;5013709;28;20739;-77
2023/09/04 07:54:38;;;;;;;6.35;5.25;;;16.60;99.90;;;;;;5013407;28;20200;-78
2023/09/04 07:57:07;;;;;;;9.10;5.90;;;16.80;99.90;;;;;;5013363;28;20210;-78
2023/09/04 07:59:34;;;;;;;10.38;5.72;;;16.80;99.90;;;;;;5013673;28;20644;-77
2023/09/04 08:02:01;;;;;;;9.75;5.10;;;16.70;99.90;;;;;;5013320;28;20268;-78
2023/09/04 08:04:27;;;;;;;7.80;5.88;;;16.80;99.90;;;;;;5013619;28;20207;-75
2023/09/04 08:06:56;;;;;;;7.00;5.13;;;17.00;99.90;;;;;;5014004;28;20201;-77
2023/09/04 08:09:23;;;;;;;6.68;5.32;;;17.10;99.90;;;;;;5013456;28;20243;-78
2023/09/04 08:11:51;;;;;;;8.98;4.57;;;17.40;99.90;;;;;;5013911;28;20228;-77
2023/09/04 08:14:18;;;;;;;6.85;5.13;;;17.50;99.90;;;;;;5013531;28;20204;-76
2023/09/04 08:16:45;;;;;;;5.45;4.50;;;17.50;99.90;;;;;;5013961;28;20208;-78
2023/09/04 08:19:12;;;;;;;9.05;4.45;;;17.40;99.90;;;;;;5015423;28;20228;-78
2023/09/04 08:21:38;;;;;;;6.57;5.05;;;17.30;99.90;;;;;;5014668;28;20735;-77
2023/09/04 08:24:06;;;;;;;6.93;4.63;;;17.50;99.90;;;;;;5015904;28;20200;-78
2023/09/04 08:26:33;;;;;;;5.50;4.18;;;17.60;99.90;;;;;;5015035;28;20200;-78
2023/09/04 08:29:01;;;;;;;4.68;3.42;;;17.70;99.90;;;;;;5015216;28;20210;-78
2023/09/04 08:31:28;;;;;;;7.15;4.20;;;17.70;99.90;;;;;;5015599;28;20224;-78
2023/09/04 08:33:54;;;;;;;4.07;3.47;;;17.70;99.90;;;;;;5015403;28;20204;-78
2023/09/04 08:36:21;;;;;;;4.47;3.50;;;17.70;99.90;;;;;;5015451;28;20218;-78
2023/09/04 08:38:48;;;;;;;4.65;3.38;;;18.00;99.90;;;;;;5015192;28;20226;-78
2023/09/04 08:41:17;;;;;;;5.57;3.30;;;18.00;99.90;;;;;;5014717;28;20263;-78
2023/09/04 08:43:47;;;;;;;4.55;3.53;;;18.20;99.90;;;;;;5015090;28;20208;-78
2023/09/04 08:46:16;;;;;;;3.58;2.58;;;18.20;99.90;;;;;;5013780;28;20652;-78
2023/09/04 08:48:45;;;;;;;4.03;2.60;;;18.40;99.90;;;;;;5014096;28;20206;-76
2023/09/04 08:51:13;;;;;;;2.80;2.45;;;18.40;99.90;;;;;;5013291;28;20700;-78
2023/09/04 08:53:41;;;;;;;2.60;2.40;;;18.50;99.90;;;;;;5015328;28;20274;-78
2023/09/04 08:56:08;;;;;;;3.72;2.35;;;18.60;99.90;;;;;;5015001;28;20215;-78
2023/09/04 08:58:35;;;;;;;4.30;2.67;;;18.50;99.90;;;;;;5034952;28;20204;-79
2023/09/04 09:01:03;;;;;;;4.30;2.22;;;18.80;99.90;;;;;;5035783;28;20234;-78
2023/09/04 09:03:32;;;;;;;5.13;2.80;;;18.80;99.90;;;;;;5036194;28;20625;-77
2023/09/04 09:05:59;;;;;;;3.97;2.60;;;19.00;99.90;;;;;;5037485;28;20199;-78
2023/09/04 09:08:27;;;;;;;4.57;2.90;;;19.00;99.90;;;;;;5028937;28;20208;-77
2023/09/04 09:10:54;;;;;;;3.55;2.65;;;19.10;99.90;;;;;;5036124;28;20302;-78
2023/09/04 09:13:21;;;;;;;3.33;2.40;;;19.20;99.90;;;;;;5038320;28;20628;-78
2023/09/04 09:15:48;;;;;;;3.55;2.75;;;20.00;99.90;;;;;;5027483;28;20204;-79
2023/09/04 09:18:38;;;;;;;19.30;2.78;;;20.40;99.90;;;;;;5036833;28;20199;-79
2023/09/04 09:21:23;;;;;;;3.42;2.35;;;21.00;99.90;;;;;;5037935;28;20232;-77
2023/09/04 09:24:15;;;;;;;3.55;2.28;;;21.50;99.90;;;;;;5038515;28;20661;-78
2023/09/04 09:26:44;;;;;;;4.03;2.38;;;21.90;99.90;;;;;;5037942;28;20199;-78
2023/09/04 09:29:12;;;;;;;2.92;2.35;;;22.20;99.90;;;;;;5054394;28;20206;-80
2023/09/04 09:31:41;;;;;;;3.78;2.13;;;22.40;99.90;;;;;;5017347;28;20220;-79
2023/09/04 09:34:09;;;;;;;4.00;2.30;;;22.60;99.90;;;;;;5018365;28;20250;-80
2023/09/04 09:36:36;;;;;;;4.15;2.22;;;23.00;99.90;;;;;;5048694;28;20683;-80
2023/09/04 09:41:47;;;;;;;4.68;2.55;;;23.10;99.90;;;;;;5051724;28;20494;-80
2023/09/04 09:44:14;;;;;;;2.97;2.28;;;22.60;99.90;;;;;;5056293;28;20211;-80
2023/09/04 09:46:42;;;;;;;2.65;2.45;;;22.30;99.90;;;;;;5049051;28;20869;-80
2023/09/04 09:49:12;;;;;;;3.72;2.25;;;23.10;99.90;;;;;;5050294;28;20215;-80
2023/09/04 09:51:39;;;;;;;3.33;2.80;;;23.00;99.90;;;;;;5036897;28;20219;-80
2023/09/04 09:54:08;;;;;;;2.20;1.90;;;22.90;99.90;;;;;;5052362;28;20199;-80
2023/09/04 09:56:36;;;;;;;2.25;2.10;;;23.80;99.90;;;;;;5057041;28;20289;-80
2023/09/04 09:59:03;;;;;;;2.40;2.20;;;24.30;99.90;;;;;;5057590;28;20203;-79
2023/09/04 10:01:31;;;;;;;2.58;2.22;;;24.30;99.90;;;;;;5056333;28;20233;-80
2023/09/04 10:04:00;;;;;;;3.20;2.20;;;24.30;99.90;;;;;;5045048;28;20196;-80
2023/09/04 10:06:34;;;;;;;3.88;2.40;;;24.70;99.90;;;;;;5017481;28;20653;-80
2023/09/04 10:09:01;;;;;;;2.28;2.03;;;23.90;99.90;;;;;;5017698;28;20204;-80
2023/09/04 10:11:30;;;;;;;2.42;2.22;;;24.00;99.90;;;;;;5017009;28;20216;-80
2023/09/04 10:14:04;;;;;;;3.45;2.63;;;24.50;99.90;;;;;;5017250;28;20200;-80
2023/09/04 10:16:34;;;;;;;2.20;1.95;;;24.50;99.90;;;;;;5016650;28;20204;-80
2023/09/04 10:19:03;;;;;;;2.78;2.58;;;24.60;99.90;;;;;;5023833;28;20219;-79
2023/09/04 10:21:35;;;;;;;2.65;1.77;;;24.80;99.90;;;;;;5036037;28;20234;-80
2023/09/04 10:24:03;;;;;;;2.15;1.98;;;24.90;99.90;;;;;;5035632;28;20567;-80
2023/09/04 10:26:41;;;;;;;4.13;2.10;;;24.80;99.90;;;;;;5036796;28;20212;-80
2023/09/04 10:29:11;;;;;;;2.10;2.00;;;24.60;99.90;;;;;;5036455;28;20217;-80
2023/09/04 10:31:39;;;;;;;1.95;1.85;;;24.10;99.90;;;;;;5036734;28;20215;-80
2023/09/04 10:34:05;;;;;;;1.98;1.83;;;23.70;99.90;;;;;;5036096;28;20203;-79
2023/09/04 10:36:37;;;;;;;2.65;2.10;;;24.10;99.90;;;;;;5036617;28;20680;-80
2023/09/04 10:39:05;;;;;;;5.05;2.17;;;24.40;99.90;;;;;;5036390;28;20204;-79
2023/09/04 10:41:35;;;;;;;2.97;2.08;;;24.80;99.90;;;;;;5033594;28;20242;-80
2023/09/04 10:44:02;;;;;;;2.92;2.10;;;25.00;99.90;;;;;;5035009;28;20643;-80
2023/09/04 10:46:29;;;;;;;2.20;2.00;;;24.70;99.90;;;;;;5034321;28;20242;-80
2023/09/04 10:48:55;;;;;;;3.35;2.15;;;25.40;99.90;;;;;;5021657;28;20734;-80
2023/09/04 10:51:31;;;;;;;3.25;1.90;;;25.80;99.90;;;;;;5036131;28;20895;-81
2023/09/04 10:54:01;;;;;;;2.92;2.00;;;25.60;99.90;;;;;;5036426;28;20203;-80
2023/09/04 10:56:28;;;;;;;4.80;1.77;;;25.50;99.90;;;;;;5036156;28;20188;-81
2023/09/04 10:59:02;;;;;;;2.17;1.98;;;25.70;99.90;;;;;;5036234;28;20202;-81
2023/09/04 11:01:34;;;;;;;2.03;1.80;;;25.40;99.90;;;;;;5036077;28;20251;-81
2023/09/04 11:04:02;;;;;;;2.65;2.30;;;25.70;99.90;;;;;;5036830;28;20230;-80
2023/09/04 11:06:29;;;;;;;2.88;2.05;;;26.10;99.90;;;;;;5022302;28;20222;-79
2023/09/04 11:08:56;;;;;;;2.10;2.00;;;26.20;99.90;;;;;;5016592;28;20204;-79
2023/09/04 11:11:28;;;;;;;2.55;2.22;;;25.90;99.90;;;;;;5015948;28;20228;-79
2023/09/04 11:13:59;;;;;;;5.45;2.30;;;25.80;99.90;;;;;;5015892;28;20208;-79
2023/09/04 11:16:26;;;;;;;3.17;2.08;;;24.80;99.90;;;;;;5016779;28;20289;-80
2023/09/04 11:19:05;;;;;;;2.78;2.10;;;24.20;99.90;;;;;;5016335;28;20208;-80
2023/09/04 11:21:33;;;;;;;3.05;2.22;;;24.10;99.90;;;;;;5016426;28;20228;-80
2023/09/04 11:24:00;;;;;;;2.83;1.98;;;24.60;99.90;;;;;;5021467;28;20267;-79
2023/09/04 11:26:29;;;;;;;2.42;2.22;;;24.40;99.90;;;;;;5024061;28;20226;-80
2023/09/04 11:28:59;;;;;;;2.10;2.00;;;25.40;99.90;;;;;;5016032;28;20669;-81
2023/09/04 11:31:27;;;;;;;4.22;2.00;;;24.90;99.90;;;;;;5014030;28;20286;-80
2023/09/04 11:33:54;;;;;;;3.08;2.10;;;25.00;99.90;;;;;;5026089;28;20200;-79
2023/09/04 11:36:22;;;;;;;2.42;2.05;;;25.20;99.90;;;;;;5036445;28;20219;-79
2023/09/04 11:38:50;;;;;;;2.50;2.30;;;24.60;99.90;;;;;;5038811;28;20744;-81
2023/09/04 11:41:19;;;;;;;3.15;2.03;;;24.50;99.90;;;;;;5025319;28;20227;-80
2023/09/04 11:43:47;;;;;;;2.20;2.00;;;24.40;99.90;;;;;;5017894;28;20219;-79
2023/09/04 11:46:14;;;;;;;4.68;2.08;;;24.90;99.90;;;;;;5018726;28;20222;-80
2023/09/04 11:48:41;;;;;;;2.10;1.90;;;25.10;99.90;;;;;;5033754;28;20714;-80
2023/09/04 11:51:11;;;;;;;3.00;1.80;;;25.00;99.90;;;;;;5018947;28;20216;-81
2023/09/04 11:53:38;;;;;;;2.33;2.13;;;24.70;99.90;;;;;;5017255;28;20204;-80
2023/09/04 11:56:05;;;;;;;3.17;1.70;;;24.90;99.90;;;;;;5034864;28;20234;-79
2023/09/04 11:58:33;;;;;;;2.30;2.05;;;24.80;99.90;;;;;;5036176;28;20298;-79
2023/09/04 12:01:01;;;;;;;2.05;1.92;;;25.00;99.90;;;;;;5035424;28;20301;-80
2023/09/04 12:03:28;;;;;;;2.05;1.88;;;25.40;99.90;;;;;;5035785;28;20203;-78
2023/09/04 12:05:56;;;;;;;2.88;1.80;;;24.70;99.90;;;;;;5035268;28;20199;-78
2023/09/04 12:08:23;;;;;;;2.88;1.90;;;24.30;99.90;;;;;;5042604;28;20199;-80
2023/09/04 12:10:51;;;;;;;2.78;2.03;;;24.80;99.90;;;;;;5052794;28;20278;-80
2023/09/04 12:13:18;;;;;;;2.03;1.92;;;25.10;99.90;;;;;;5035366;28;20685;-79
2023/09/04 12:15:47;;;;;;;2.13;1.92;;;25.40;99.90;;;;;;5031776;28;20231;-79
2023/09/04 12:18:16;;;;;;;2.35;2.15;;;25.20;99.90;;;;;;5035007;28;20207;-79
2023/09/04 12:20:45;;;;;;;5.32;2.13;;;25.20;99.90;;;;;;5034692;28;20259;-79
2023/09/04 12:23:12;;;;;;;2.53;2.28;;;25.00;99.90;;;;;;5034921;28;20219;-79
2023/09/04 12:25:40;;;;;;;2.42;1.70;;;24.80;99.90;;;;;;5050931;28;20195;-79
2023/09/04 12:28:09;;;;;;;2.50;2.00;;;24.70;99.90;;;;;;5040511;28;20685;-79
2023/09/04 12:30:36;;;;;;;1.90;1.80;;;25.00;99.90;;;;;;5051549;28;20225;-78
2023/09/04 12:33:04;;;;;;;2.65;2.15;;;24.80;99.90;;;;;;5054830;28;20207;-80
2023/09/04 12:35:33;;;;;;;4.28;2.20;;;25.90;99.90;;;;;;5034950;28;20196;-79
2023/09/04 12:38:00;;;;;;;2.97;2.13;;;26.40;99.90;;;;;;5034343;28;20214;-79
2023/09/04 12:40:27;;;;;;;2.58;2.10;;;25.30;99.90;;;;;;5036601;28;20733;-78
2023/09/04 12:42:53;;;;;;;2.80;2.13;;;25.20;99.90;;;;;;5037938;28;20208;-80
2023/09/04 12:45:20;;;;;;;2.42;1.90;;;25.40;99.90;;;;;;5030982;28;20211;-79
2023/09/04 12:47:47;;;;;;;3.40;2.20;;;25.70;99.90;;;;;;5036935;28;20200;-80
2023/09/04 12:50:14;;;;;;;1.90;1.80;;;25.30;99.90;;;;;;5036803;28;20227;-81
2023/09/04 12:52:47;;;;;;;3.20;2.00;;;25.00;99.90;;;;;;5038314;28;20225;-80